Time;durP1;ratioP1;P1;durP2;ratioP2;P2;SDS_P1;SDS_P2;PMS_P1;PMS_P2;Temp;Humidity;BMP_temperature;BMP_pressure;BME280_temperature;BME280_humidity;BME280_pressure;Samples;Min_cycle;Max_cycle;Signal;HPM_P1;HPM_P2
2023/04/05 00:01:20;;;;;;;7.57;3.60;;;;;;;5.30;47.45;101353.66;4133663;28;20105;-64
2023/04/05 00:03:23;;;;;;;7.00;3.08;;;;;;;5.27;47.09;101353.50;4131040;28;20030;-64
2023/04/05 00:05:29;;;;;;;8.23;2.95;;;;;;;5.27;47.05;101350.03;4131370;28;20081;-64
2023/04/05 00:07:33;;;;;;;6.50;3.72;;;;;;;5.21;47.33;101350.59;4131403;28;20361;-64
2023/04/05 00:09:36;;;;;;;9.20;3.28;;;;;;;5.20;47.35;101356.59;4129288;28;20046;-64
2023/04/05 00:11:39;;;;;;;7.60;3.13;;;;;;;5.19;47.24;101350.53;4127827;28;20134;-64
2023/04/05 00:13:42;;;;;;;12.02;3.03;;;;;;;5.19;47.06;101353.09;4127297;28;20042;-64
2023/04/05 00:15:47;;;;;;;6.45;3.35;;;;;;;5.18;46.57;101353.94;4116506;28;20057;-63
2023/04/05 00:17:50;;;;;;;7.35;3.10;;;;;;;5.21;46.45;101348.94;4133282;28;20092;-64
2023/04/05 00:19:56;;;;;;;7.90;3.47;;;;;;;5.18;46.41;101346.19;4131430;28;20103;-64
2023/04/05 00:21:59;;;;;;;5.18;2.90;;;;;;;5.16;46.18;101345.22;4129559;28;20066;-64
2023/04/05 00:24:02;;;;;;;6.20;2.75;;;;;;;5.13;46.22;101339.91;4124984;28;20057;-64
2023/04/05 00:26:05;;;;;;;4.97;2.65;;;;;;;5.11;46.11;101338.97;4130514;28;20034;-64
2023/04/05 00:28:08;;;;;;;4.40;2.53;;;;;;;5.09;46.30;101335.41;4130975;28;20456;-64
2023/04/05 00:30:11;;;;;;;5.25;2.75;;;;;;;5.07;47.01;101339.59;4130424;28;20476;-64
2023/04/05 00:32:16;;;;;;;8.50;2.67;;;;;;;5.06;46.74;101341.28;4128821;28;20668;-64
2023/04/05 00:34:18;;;;;;;7.35;2.95;;;;;;;5.05;46.66;101333.47;4129663;28;20437;-64
2023/04/05 00:36:21;;;;;;;5.90;3.10;;;;;;;5.01;46.46;101337.59;4121680;28;20046;-64
2023/04/05 00:38:27;;;;;;;7.40;3.05;;;;;;;4.98;46.98;101334.88;4130189;28;20150;-64
2023/04/05 00:40:31;;;;;;;4.35;2.50;;;;;;;4.96;47.31;101340.75;4107007;28;20616;-64
2023/04/05 00:42:33;;;;;;;8.80;2.92;;;;;;;4.95;46.90;101326.09;4128496;28;20046;-64
2023/04/05 00:44:37;;;;;;;9.95;3.50;;;;;;;4.98;46.75;101331.38;4131538;28;20038;-63
2023/04/05 00:46:40;;;;;;;6.32;2.50;;;;;;;4.94;46.58;101332.06;4129883;28;20045;-63
2023/04/05 00:48:45;;;;;;;5.40;2.92;;;;;;;4.92;46.76;101323.34;4129416;28;20050;-64
2023/04/05 00:50:50;;;;;;;5.60;2.97;;;;;;;4.89;46.85;101324.06;4129320;28;20034;-64
2023/04/05 00:52:53;;;;;;;5.38;2.75;;;;;;;4.86;47.38;101324.81;4128470;28;20125;-64
2023/04/05 00:54:56;;;;;;;5.38;2.38;;;;;;;4.83;47.31;101319.53;4129816;28;20436;-64
2023/04/05 00:56:59;;;;;;;7.20;3.53;;;;;;;4.81;47.35;101326.25;4131515;28;20042;-64
2023/04/05 00:59:02;;;;;;;6.65;2.78;;;;;;;4.76;47.18;101326.84;4130648;28;20104;-64
2023/04/05 01:01:13;;;;;;;4.85;2.60;;;;;;;4.74;47.47;101329.31;4130960;28;20038;-64
2023/04/05 01:03:18;;;;;;;7.05;2.83;;;;;;;4.67;47.38;101325.56;4128634;28;20035;-64
2023/04/05 01:05:34;;;;;;;6.20;2.95;;;;;;;4.67;47.51;101322.09;4129738;28;20030;-64
2023/04/05 01:07:50;;;;;;;7.10;2.92;;;;;;;4.65;47.84;101318.56;4145202;28;20042;-64
2023/04/05 01:09:57;;;;;;;5.15;2.60;;;;;;;4.63;47.81;101320.16;4125430;28;20046;-64
2023/04/05 01:12:04;;;;;;;6.97;2.92;;;;;;;4.60;48.12;101314.84;4128950;28;20038;-64
2023/04/05 01:14:07;;;;;;;7.38;2.70;;;;;;;4.57;48.40;101323.31;4141854;28;20088;-64
2023/04/05 01:16:10;;;;;;;5.07;2.40;;;;;;;4.57;48.31;101314.69;4145340;28;20109;-64
2023/04/05 01:18:14;;;;;;;8.05;3.10;;;;;;;4.53;48.15;101311.97;4145769;28;20100;-63
2023/04/05 01:20:16;;;;;;;4.65;2.88;;;;;;;4.51;48.52;101311.00;4128370;28;20085;-63
2023/04/05 01:22:50;;;;;;;6.30;3.08;;;;;;;4.47;48.77;101309.06;4126878;28;20050;-64
2023/04/05 01:25:18;;;;;;;5.60;2.65;;;;;;;4.46;48.85;101312.44;4116803;28;20052;-64
2023/04/05 01:27:29;;;;;;;6.07;3.33;;;;;;;4.39;48.86;101305.19;4131793;28;20042;-64
2023/04/05 01:29:51;;;;;;;9.13;3.92;;;;;;;4.36;49.47;101305.03;4129180;28;20046;-64
2023/04/05 01:32:00;;;;;;;6.15;3.20;;;;;;;4.34;49.93;101306.66;4129828;28;20051;-63
2023/04/05 01:34:11;;;;;;;7.45;3.20;;;;;;;4.34;49.78;101307.53;4129518;28;20065;-63
2023/04/05 01:36:23;;;;;;;5.57;2.78;;;;;;;4.32;50.08;101301.44;4129086;28;20058;-64
2023/04/05 01:38:29;;;;;;;6.43;3.22;;;;;;;4.28;50.64;101302.06;4129270;28;20062;-64
2023/04/05 01:40:32;;;;;;;;;;;;;;;4.18;51.10;101299.81;4129374;28;20540;-64
2023/04/05 01:42:35;;;;;;;6.93;3.42;;;;;;;4.17;51.06;101298.91;4144537;28;20339;-64
2023/04/05 01:44:38;;;;;;;5.28;3.00;;;;;;;4.16;51.42;101297.16;4144872;28;20092;-64
2023/04/05 01:46:42;;;;;;;5.65;2.95;;;;;;;4.18;51.38;101295.53;4123569;28;20041;-64
2023/04/05 01:48:45;;;;;;;6.35;3.03;;;;;;;4.18;51.87;101294.66;4126363;28;20053;-64
2023/04/05 01:50:49;;;;;;;5.28;3.17;;;;;;;4.18;51.87;101294.66;4128968;28;20042;-64
2023/04/05 01:52:53;;;;;;;8.13;3.13;;;;;;;4.18;51.59;101295.53;4131699;28;20500;-64
2023/04/05 01:54:56;;;;;;;5.50;3.25;;;;;;;4.18;51.51;101290.38;4110100;28;20043;-64
2023/04/05 01:56:59;;;;;;;8.63;3.00;;;;;;;4.17;51.51;101293.75;4128839;28;20121;-64
2023/04/05 01:59:02;;;;;;;7.82;3.40;;;;;;;4.17;51.08;101304.03;4144754;28;20458;-64
2023/04/05 02:01:06;;;;;;;5.28;3.28;;;;;;;4.17;51.97;101293.75;4128730;28;20061;-64
2023/04/05 02:03:11;;;;;;;8.55;3.08;;;;;;;4.16;51.81;101291.09;4141203;28;20036;-65
2023/04/05 02:05:14;;;;;;;5.53;3.65;;;;;;;4.13;52.00;101290.94;4143794;28;20487;-65
2023/04/05 02:07:17;;;;;;;5.60;2.80;;;;;;;4.09;51.85;101296.72;4129221;28;20038;-64
2023/04/05 02:09:20;;;;;;;5.72;3.15;;;;;;;4.08;51.43;101288.13;4127892;28;20038;-65
2023/04/05 02:11:23;;;;;;;6.28;2.67;;;;;;;4.06;51.97;101284.59;4112536;28;20046;-64
2023/04/05 02:13:26;;;;;;;3.92;2.40;;;;;;;4.07;51.90;101291.47;4107893;28;20050;-64
2023/04/05 02:15:28;;;;;;;6.65;2.83;;;;;;;4.08;52.34;101297.53;4124325;28;20531;-64
2023/04/05 02:17:38;;;;;;;4.67;2.40;;;;;;;4.07;52.21;101285.47;4144196;28;20038;-64
2023/04/05 02:19:45;;;;;;;4.15;2.70;;;;;;;4.06;52.09;101284.59;4144052;28;20112;-64
2023/04/05 02:21:48;;;;;;;4.82;2.90;;;;;;;4.04;51.37;101287.88;4125905;28;20043;-64
2023/04/05 02:23:54;;;;;;;8.45;3.10;;;;;;;4.04;51.17;101291.31;4128776;28;20662;-64
2023/04/05 02:25:57;;;;;;;6.28;3.15;;;;;;;4.03;50.82;101284.44;4129086;28;20125;-64
2023/04/05 02:28:00;;;;;;;7.57;3.22;;;;;;;4.05;50.47;101287.97;4125957;28;20050;-64
2023/04/05 02:30:03;;;;;;;4.82;3.28;;;;;;;4.04;49.71;101293.03;4127285;28;20093;-64
2023/04/05 02:32:06;;;;;;;6.22;3.25;;;;;;;3.99;49.82;101285.06;4128181;28;20038;-64
2023/04/05 02:34:10;;;;;;;10.80;3.80;;;;;;;3.98;49.36;101286.72;4125673;28;20073;-64
2023/04/05 02:36:13;;;;;;;5.45;2.83;;;;;;;3.99;48.37;101287.63;4128583;28;20069;-64
2023/04/05 02:38:16;;;;;;;6.95;2.78;;;;;;;4.00;49.17;101285.16;4128071;28;20041;-64
2023/04/05 02:40:20;;;;;;;6.63;3.35;;;;;;;3.98;48.98;101286.72;4127756;28;20489;-65
2023/04/05 02:42:23;;;;;;;6.13;2.85;;;;;;;4.01;49.24;101291.16;4129385;28;20096;-65
2023/04/05 02:44:26;;;;;;;9.05;3.58;;;;;;;4.02;49.31;101288.66;4127237;28;20039;-64
2023/04/05 02:46:29;;;;;;;7.43;3.15;;;;;;;4.02;49.12;101285.22;4126532;28;20041;-64
2023/04/05 02:48:33;;;;;;;10.18;3.60;;;;;;;4.02;49.41;101288.66;4128983;28;20609;-64
2023/04/05 02:50:37;;;;;;;6.77;3.50;;;;;;;4.03;49.24;101292.16;4144256;28;20064;-64
2023/04/05 02:52:41;;;;;;;7.75;3.80;;;;;;;4.05;48.66;101285.38;4129365;28;20204;-64
2023/04/05 02:54:45;;;;;;;6.38;3.42;;;;;;;4.03;48.24;101281.84;4126191;28;20530;-64
2023/04/05 02:56:53;;;;;;;7.38;3.75;;;;;;;4.01;48.56;101280.88;4135167;28;20073;-64
2023/04/05 02:58:57;;;;;;;7.25;3.78;;;;;;;4.03;48.06;101279.28;4128123;28;20520;-64
2023/04/05 03:01:06;;;;;;;7.32;4.10;;;;;;;4.06;48.15;101274.31;4124800;28;20591;-64
2023/04/05 03:03:10;;;;;;;8.80;4.15;;;;;;;4.09;48.30;101269.31;4110496;28;20046;-64
2023/04/05 03:05:17;;;;;;;7.05;3.55;;;;;;;4.13;47.84;101273.81;4143595;28;20480;-64
2023/04/05 03:07:24;;;;;;;9.02;3.95;;;;;;;4.11;48.18;101267.69;4118557;28;20046;-64
2023/04/05 03:09:32;;;;;;;6.78;3.80;;;;;;;4.11;48.46;101267.69;4112459;28;20047;-64
2023/04/05 03:11:39;;;;;;;7.90;3.58;;;;;;;4.08;49.02;101270.09;4149445;28;20058;-64
2023/04/05 03:13:42;;;;;;;6.65;3.53;;;;;;;4.02;49.41;101269.78;4127783;28;20526;-64
2023/04/05 03:15:53;;;;;;;6.60;3.25;;;;;;;3.99;49.57;101267.06;4149523;28;20057;-64
2023/04/05 03:17:58;;;;;;;6.05;3.63;;;;;;;3.94;49.55;101268.47;4154724;28;20076;-64
2023/04/05 03:20:07;;;;;;;7.93;3.75;;;;;;;3.89;49.37;101265.66;4132825;28;20136;-64
2023/04/05 03:22:10;;;;;;;8.45;3.80;;;;;;;3.84;49.27;101268.00;4131058;28;20042;-64
2023/04/05 03:24:13;;;;;;;7.00;3.90;;;;;;;3.83;49.02;101271.34;4133097;28;20038;-64
2023/04/05 03:26:18;;;;;;;6.40;3.67;;;;;;;3.84;48.82;101267.09;4147750;28;20061;-64
2023/04/05 03:28:25;;;;;;;9.63;3.60;;;;;;;3.80;49.33;101266.03;4132064;28;20451;-64
2023/04/05 03:30:35;;;;;;;5.72;3.22;;;;;;;3.79;49.60;101263.41;4132703;28;20039;-64
2023/04/05 03:32:49;;;;;;;5.90;3.25;;;;;;;3.76;49.18;101261.53;4132725;28;20038;-64
2023/04/05 03:35:15;;;;;;;7.10;3.65;;;;;;;3.74;49.40;101264.81;4131862;28;20085;-64
2023/04/05 03:37:20;;;;;;;9.38;4.20;;;;;;;3.74;49.01;101268.28;4130216;28;20129;-64
2023/04/05 03:39:33;;;;;;;8.38;3.97;;;;;;;3.73;48.87;101269.09;4129118;28;20042;-64
2023/04/05 03:41:38;;;;;;;7.30;4.20;;;;;;;3.72;48.81;101267.31;4128072;28;20042;-64
2023/04/05 03:43:41;;;;;;;7.40;3.65;;;;;;;3.73;49.30;101263.94;4131938;28;20034;-64
2023/04/05 03:45:44;;;;;;;4.95;3.28;;;;;;;3.73;48.96;101258.78;4131625;28;20519;-64
2023/04/05 03:47:47;;;;;;;4.45;3.30;;;;;;;3.80;48.34;101263.47;4131679;28;20038;-64
2023/04/05 03:49:51;;;;;;;7.05;3.70;;;;;;;3.78;48.54;101249.66;4146536;28;20049;-64
2023/04/05 03:51:53;;;;;;;6.35;3.22;;;;;;;3.76;48.11;101248.66;4140096;28;20042;-65
2023/04/05 03:53:56;;;;;;;9.98;3.55;;;;;;;3.80;48.03;101254.88;4130988;28;20049;-64
2023/04/05 03:56:02;;;;;;;7.07;3.60;;;;;;;3.78;48.10;101252.22;4146786;28;20133;-64
2023/04/05 03:58:33;;;;;;;7.45;3.40;;;;;;;3.79;48.51;101256.53;4130121;28;20116;-65
2023/04/05 04:00:36;;;;;;;6.70;3.60;;;;;;;3.79;48.46;101253.09;4146040;28;20045;-64
2023/04/05 04:02:53;;;;;;;6.97;3.85;;;;;;;3.81;48.15;101254.06;4126120;28;20481;-64
2023/04/05 04:04:56;;;;;;;7.88;4.45;;;;;;;3.82;48.04;101261.84;4129654;28;20038;-64
2023/04/05 04:07:00;;;;;;;9.57;3.35;;;;;;;3.82;48.41;101259.28;4139674;28;20038;-63
2023/04/05 04:09:04;;;;;;;6.13;3.28;;;;;;;3.80;49.03;101255.75;4128343;28;20129;-64
2023/04/05 04:11:07;;;;;;;7.75;3.88;;;;;;;3.78;49.69;101256.47;4124390;28;20038;-63
2023/04/05 04:13:13;;;;;;;8.05;3.83;;;;;;;3.75;49.98;101244.34;4133915;28;20165;-63
2023/04/05 04:15:18;;;;;;;12.25;3.60;;;;;;;3.71;50.29;101239.84;4133236;28;20045;-63
2023/04/05 04:17:44;;;;;;;5.90;3.72;;;;;;;3.69;50.61;101250.84;4120416;28;20058;-64
2023/04/05 04:20:11;;;;;;;8.85;3.97;;;;;;;3.63;50.43;101247.09;4126955;28;20506;-64
2023/04/05 04:22:52;;;;;;;6.85;3.83;;;;;;;3.57;50.69;101245.91;4125232;28;20151;-64
2023/04/05 04:25:16;;;;;;;8.35;4.00;;;;;;;3.57;50.67;101251.03;4135184;28;20033;-64
2023/04/05 04:27:57;;;;;;;7.88;3.53;;;;;;;3.57;50.83;101243.34;4126531;28;20066;-64
2023/04/05 04:30:25;;;;;;;6.47;3.85;;;;;;;3.55;50.62;101243.25;4130538;28;20042;-63
2023/04/05 04:32:56;;;;;;;5.70;3.47;;;;;;;3.53;50.62;101244.84;4131176;28;20045;-64
2023/04/05 04:35:17;;;;;;;6.15;3.90;;;;;;;3.51;50.53;101245.56;4121923;28;20047;-64
2023/04/05 04:37:46;;;;;;;8.32;3.75;;;;;;;3.53;49.14;101246.53;4125047;28;20531;-72
2023/04/05 04:40:16;;;;;;;7.40;3.97;;;;;;;3.48;49.62;101246.28;4117893;28;20058;-73
2023/04/05 04:42:45;;;;;;;8.40;3.47;;;;;;;3.48;49.31;101242.00;4126838;28;20530;-73
2023/04/05 04:45:20;;;;;;;5.85;3.30;;;;;;;3.48;49.75;101257.44;4131240;28;20042;-73
2023/04/05 04:47:33;;;;;;;6.10;3.53;;;;;;;3.53;49.39;101238.81;4136796;28;20046;-73
2023/04/05 04:49:50;;;;;;;7.88;3.33;;;;;;;3.51;50.10;101245.56;4128582;28;20078;-73
2023/04/05 04:51:53;;;;;;;4.70;3.30;;;;;;;3.50;50.14;101239.53;4127002;28;20038;-73
2023/04/05 04:53:58;;;;;;;8.43;3.75;;;;;;;3.47;49.87;101241.94;4125917;28;20050;-73
2023/04/05 04:56:01;;;;;;;7.47;3.65;;;;;;;3.43;50.27;101246.03;4125028;28;20062;-72
2023/04/05 04:58:08;;;;;;;5.43;3.20;;;;;;;3.41;50.10;101251.88;4124715;28;20057;-73
2023/04/05 05:00:14;;;;;;;7.97;3.88;;;;;;;3.41;49.96;101254.44;4123916;28;20062;-72
2023/04/05 05:02:17;;;;;;;6.82;3.47;;;;;;;3.37;50.38;101250.81;4123090;28;20489;-73
2023/04/05 05:04:22;;;;;;;5.45;3.65;;;;;;;3.32;50.81;101247.97;4125802;28;20488;-73
2023/04/05 05:06:26;;;;;;;5.45;3.33;;;;;;;3.29;51.27;101258.09;4123931;28;20416;-73
2023/04/05 05:08:29;;;;;;;7.30;3.50;;;;;;;3.22;51.28;101253.41;4122373;28;20492;-73
2023/04/05 05:10:31;;;;;;;7.90;3.67;;;;;;;3.21;51.92;101254.19;4121325;28;20043;-73
2023/04/05 05:12:38;;;;;;;9.18;3.58;;;;;;;3.20;52.09;101251.53;4119492;28;20046;-73
2023/04/05 05:14:41;;;;;;;8.18;3.33;;;;;;;3.21;52.26;101261.03;4123397;28;20034;-73
2023/04/05 05:16:43;;;;;;;5.32;3.10;;;;;;;3.19;52.52;101265.19;4123802;28;20053;-73
2023/04/05 05:18:47;;;;;;;8.02;3.30;;;;;;;3.17;52.88;101261.66;4125415;28;20038;-73
2023/04/05 05:20:52;;;;;;;6.65;3.88;;;;;;;3.16;53.00;101257.31;4124143;28;20066;-73
2023/04/05 05:22:54;;;;;;;;;;;;;;;3.05;53.16;101261.81;4125789;28;20050;-73
2023/04/05 05:24:57;;;;;;;6.10;3.65;;;;;;;3.03;53.16;101266.88;4109848;28;19922;-72
2023/04/05 05:27:00;;;;;;;5.93;3.53;;;;;;;3.05;53.74;101261.81;4124953;28;20054;-72
2023/04/05 05:29:03;;;;;;;6.72;3.90;;;;;;;2.94;54.05;101262.09;4122271;28;20042;-73
2023/04/05 05:31:11;;;;;;;10.35;5.45;;;;;;;2.90;53.87;101272.09;4106228;28;20062;-73
2023/04/05 05:33:14;;;;;;;9.68;5.45;;;;;;;2.91;54.70;101267.06;4124248;28;20512;-73
2023/04/05 05:35:18;;;;;;;10.30;4.75;;;;;;;2.94;55.05;101267.22;4122436;28;20054;-73
2023/04/05 05:37:29;;;;;;;10.00;5.10;;;;;;;3.01;55.52;101265.91;4128937;28;20034;-73
2023/04/05 05:39:32;;;;;;;9.90;4.72;;;;;;;3.02;55.02;101267.66;4141624;28;20038;-73
2023/04/05 05:41:36;;;;;;;9.00;4.75;;;;;;;2.99;55.54;101270.06;4128803;28;20050;-73
2023/04/05 05:43:39;;;;;;;11.05;4.63;;;;;;;3.03;55.53;101274.59;4135531;28;20061;-73
2023/04/05 05:45:42;;;;;;;10.45;6.15;;;;;;;3.06;55.26;101271.31;4132270;28;20038;-73
2023/04/05 05:47:45;;;;;;;10.38;5.47;;;;;;;3.07;55.36;101279.09;4127961;28;20132;-72
2023/04/05 05:49:48;;;;;;;13.98;6.07;;;;;;;3.08;55.94;101274.84;4121590;28;20039;-73
2023/04/05 05:51:52;;;;;;;10.82;6.75;;;;;;;3.08;55.59;101273.19;4120162;28;20081;-73
2023/04/05 05:53:56;;;;;;;12.87;6.17;;;;;;;3.10;55.91;101269.00;4122136;28;20438;-73
2023/04/05 05:55:59;;;;;;;14.43;5.70;;;;;;;3.10;55.84;101271.56;4146679;28;20038;-73
2023/04/05 05:58:02;;;;;;;11.38;5.47;;;;;;;3.17;55.73;101274.50;4122497;28;20043;-72
2023/04/05 06:00:09;;;;;;;12.07;5.82;;;;;;;3.25;54.82;101273.25;4123205;28;20979;-73
2023/04/05 06:02:16;;;;;;;13.40;5.38;;;;;;;3.29;54.61;101272.63;4121334;28;20386;-73
2023/04/05 06:04:19;;;;;;;13.00;4.97;;;;;;;3.32;54.25;101290.78;4121665;28;20047;-73
2023/04/05 06:06:22;;;;;;;8.80;5.20;;;;;;;3.39;53.55;101277.50;4125365;28;20081;-73
2023/04/05 06:08:27;;;;;;;10.25;4.82;;;;;;;3.45;52.95;101282.97;4121460;28;20073;-73
2023/04/05 06:10:31;;;;;;;12.35;5.80;;;;;;;3.59;52.71;101275.13;4120664;28;20035;-73
2023/04/05 06:12:35;;;;;;;10.77;4.65;;;;;;;3.67;52.53;101279.03;4123002;28;20050;-73
2023/04/05 06:14:37;;;;;;;12.02;5.20;;;;;;;3.77;51.37;101281.31;4124805;28;20069;-73
2023/04/05 06:16:40;;;;;;;8.85;4.38;;;;;;;3.78;51.96;101277.94;4120610;28;20092;-73
2023/04/05 06:18:44;;;;;;;14.80;4.88;;;;;;;3.75;52.07;101276.88;4120088;28;20030;-73
2023/04/05 06:20:48;;;;;;;8.68;4.95;;;;;;;3.83;51.71;101273.91;4120486;28;20070;-73
2023/04/05 06:22:51;;;;;;;13.82;5.13;;;;;;;3.81;51.81;101274.63;4124797;28;20671;-73
2023/04/05 06:24:54;;;;;;;8.48;4.10;;;;;;;3.81;52.34;101278.13;4119955;28;20516;-72
2023/04/05 06:26:58;;;;;;;13.75;4.93;;;;;;;3.92;51.82;101275.25;4122545;28;20042;-73
2023/04/05 06:29:01;;;;;;;24.92;5.57;;;;;;;3.94;51.71;101278.75;4121541;28;20504;-73
2023/04/05 06:31:04;;;;;;;11.43;5.88;;;;;;;4.02;51.50;101277.50;4123313;28;20045;-73
2023/04/05 06:33:07;;;;;;;15.90;6.47;;;;;;;4.04;51.67;101281.03;4121258;28;20050;-74
2023/04/05 06:35:10;;;;;;;7.38;4.47;;;;;;;4.25;58.47;101282.97;4128691;28;20094;-69
2023/04/05 06:37:13;;;;;;;14.00;5.55;;;;;;;4.59;53.74;101277.03;4119621;28;20452;-68
2023/04/05 06:39:16;;;;;;;12.88;6.03;;;;;;;4.58;52.50;101275.25;4119128;28;20043;-68
2023/04/05 06:41:20;;;;;;;12.33;5.83;;;;;;;4.70;54.33;101283.59;4126784;28;20262;-68
2023/04/05 06:43:24;;;;;;;12.65;5.82;;;;;;;4.83;51.94;101280.88;4122202;28;20137;-69
2023/04/05 06:45:27;;;;;;;10.80;5.65;;;;;;;4.82;51.25;101275.63;4123768;28;20100;-69
2023/04/05 06:47:32;;;;;;;12.95;6.45;;;;;;;4.74;51.20;101277.81;4124499;28;20045;-71
2023/04/05 06:49:35;;;;;;;18.40;7.43;;;;;;;4.53;51.30;101275.03;4122326;28;20476;-70
2023/04/05 06:51:38;;;;;;;19.70;7.63;;;;;;;4.45;51.22;101279.75;4120601;28;20547;-70
2023/04/05 06:53:41;;;;;;;17.08;6.32;;;;;;;4.46;51.32;101278.09;4122110;28;20049;-70
2023/04/05 06:55:49;;;;;;;12.77;7.13;;;;;;;4.35;51.94;101273.28;4123357;28;20034;-70
2023/04/05 06:57:52;;;;;;;11.32;5.70;;;;;;;4.31;51.81;101270.47;4119361;28;20046;-70
2023/04/05 06:59:56;;;;;;;13.52;6.40;;;;;;;4.50;51.53;101273.19;4115180;28;20065;-69
2023/04/05 07:01:59;;;;;;;13.75;6.38;;;;;;;4.54;50.84;101275.13;4125227;28;20066;-70
2023/04/05 07:04:01;;;;;;;11.75;6.47;;;;;;;4.64;50.17;101273.88;4139835;28;20042;-70
2023/04/05 07:06:05;;;;;;;9.57;5.32;;;;;;;4.72;50.07;101275.16;4130714;28;20042;-70
2023/04/05 07:08:08;;;;;;;13.93;7.20;;;;;;;4.68;50.18;101280.09;4128153;28;20054;-69
2023/04/05 07:10:11;;;;;;;13.65;6.22;;;;;;;4.58;50.55;101277.84;4126130;28;20546;-70
2023/04/05 07:12:14;;;;;;;15.27;6.13;;;;;;;4.74;50.21;101277.81;4125580;28;20041;-70
2023/04/05 07:14:18;;;;;;;9.55;5.80;;;;;;;4.68;50.06;101277.50;4128910;28;20038;-70
2023/04/05 07:16:22;;;;;;;12.40;5.68;;;;;;;4.78;49.56;101278.88;4122879;28;20051;-70
2023/04/05 07:18:25;;;;;;;16.95;6.20;;;;;;;4.67;50.00;101283.44;4125151;28;20037;-70
2023/04/05 07:20:28;;;;;;;9.13;5.43;;;;;;;4.81;49.64;101279.03;4127213;28;20081;-70
2023/04/05 07:22:33;;;;;;;12.15;5.93;;;;;;;4.89;49.17;101277.69;4130236;28;20038;-70
2023/04/05 07:24:36;;;;;;;;;;;;;;;4.92;48.24;101267.56;4129203;28;20034;-70
2023/04/05 07:26:38;;;;;;;10.48;3.80;;;;;;;4.68;48.41;101267.19;4129860;28;19921;-70
2023/04/05 07:28:41;;;;;;;9.15;5.32;;;;;;;4.85;48.25;101270.66;4126459;28;20097;-70
2023/04/05 07:30:44;;;;;;;12.32;5.70;;;;;;;4.88;47.86;101271.69;4122527;28;20045;-70
2023/04/05 07:32:48;;;;;;;9.02;4.97;;;;;;;5.00;47.61;101270.53;4126560;28;20134;-70
2023/04/05 07:34:51;;;;;;;11.32;4.95;;;;;;;4.98;47.71;101272.13;4124296;28;20066;-70
2023/04/05 07:36:54;;;;;;;11.57;4.47;;;;;;;5.15;46.83;101271.25;4123571;28;20038;-70
2023/04/05 07:38:57;;;;;;;9.18;4.07;;;;;;;5.15;46.62;101267.81;4125487;28;20715;-70
2023/04/05 07:41:00;;;;;;;6.70;4.10;;;;;;;5.25;46.18;101272.63;4122281;28;20050;-70
2023/04/05 07:43:03;;;;;;;13.05;5.07;;;;;;;5.32;45.94;101273.81;4126062;28;20044;-70
2023/04/05 07:45:07;;;;;;;11.45;5.05;;;;;;;5.38;45.73;101264.66;4128397;28;20121;-70
2023/04/05 07:47:11;;;;;;;9.57;4.50;;;;;;;5.47;44.73;101273.66;4126013;28;20034;-70
2023/04/05 07:49:15;;;;;;;9.38;4.13;;;;;;;5.36;44.55;101261.13;4127189;28;20045;-70
2023/04/05 07:51:18;;;;;;;10.25;4.18;;;;;;;5.37;44.64;101267.16;4129879;28;20128;-70
2023/04/05 07:53:21;;;;;;;11.60;4.43;;;;;;;5.53;44.67;101267.06;4126424;28;20423;-70
2023/04/05 07:55:24;;;;;;;8.98;3.83;;;;;;;5.51;44.28;101265.25;4127526;28;20492;-70
2023/04/05 07:57:27;;;;;;;6.20;3.47;;;;;;;5.52;44.10;101275.66;4124521;28;20077;-70
2023/04/05 07:59:30;;;;;;;5.03;2.97;;;;;;;5.71;43.79;101273.91;4124134;28;20389;-70
2023/04/05 08:01:32;;;;;;;9.30;3.75;;;;;;;5.80;42.52;101266.63;4112271;28;20051;-70
2023/04/05 08:03:38;;;;;;;6.53;3.28;;;;;;;5.86;42.91;101269.50;4125555;28;20047;-70
2023/04/05 08:05:43;;;;;;;5.28;3.42;;;;;;;5.90;43.07;101275.69;4123098;28;20042;-70
2023/04/05 08:07:45;;;;;;;6.03;3.20;;;;;;;5.88;42.73;101277.31;4126421;28;20055;-70
2023/04/05 08:09:48;;;;;;;5.80;3.72;;;;;;;6.11;42.45;101274.09;4140738;28;20567;-70
2023/04/05 08:11:51;;;;;;;7.80;4.30;;;;;;;6.22;42.41;101279.78;4128200;28;20039;-70
2023/04/05 08:13:54;;;;;;;10.75;4.90;;;;;;;6.23;42.38;101273.78;4129472;28;20038;-70
2023/04/05 08:15:57;;;;;;;11.15;5.40;;;;;;;6.08;42.59;101271.38;4136827;28;20042;-70
2023/04/05 08:18:00;;;;;;;10.63;4.90;;;;;;;6.00;43.65;101266.69;4133592;28;20046;-70
2023/04/05 08:20:04;;;;;;;13.10;6.10;;;;;;;6.02;43.77;101265.94;4137205;28;20030;-70
2023/04/05 08:22:08;;;;;;;9.32;5.50;;;;;;;6.16;44.22;101269.16;4127530;28;20085;-70
2023/04/05 08:24:10;;;;;;;9.20;5.28;;;;;;;6.23;43.98;101271.19;4129010;28;20403;-69
2023/04/05 08:26:13;;;;;;;8.65;4.47;;;;;;;6.23;44.03;101263.44;4131584;28;20407;-70
2023/04/05 08:28:16;;;;;;;8.15;4.80;;;;;;;6.32;44.49;101262.09;4132448;28;20030;-70
2023/04/05 08:30:19;;;;;;;6.47;4.20;;;;;;;6.62;42.77;101255.69;4131797;28;20042;-70
2023/04/05 08:32:22;;;;;;;9.13;4.07;;;;;;;6.61;41.96;101253.94;4129888;28;20117;-70
2023/04/05 08:34:25;;;;;;;8.27;4.10;;;;;;;6.58;43.11;101252.91;4128903;28;20152;-70
2023/04/05 08:36:28;;;;;;;11.20;4.72;;;;;;;6.50;43.07;101259.44;4131402;28;20041;-69
2023/04/05 08:38:33;;;;;;;7.38;3.97;;;;;;;6.74;41.62;101254.47;4130945;28;20125;-70
2023/04/05 08:40:40;;;;;;;7.30;3.90;;;;;;;6.71;42.34;101254.31;4130467;28;20034;-70
2023/04/05 08:42:51;;;;;;;8.73;4.20;;;;;;;6.97;41.18;101258.88;4130061;28;20122;-69
2023/04/05 08:44:57;;;;;;;6.88;4.13;;;;;;;6.86;41.58;101256.66;4132856;28;20042;-70
2023/04/05 08:47:00;;;;;;;8.00;4.35;;;;;;;6.99;40.93;101257.25;4131672;28;20419;-70
2023/04/05 08:49:06;;;;;;;16.00;4.50;;;;;;;7.13;40.60;101254.34;4144214;28;20590;-70
2023/04/05 08:51:09;;;;;;;15.52;4.85;;;;;;;7.20;39.74;101258.97;4131612;28;20068;-70
2023/04/05 08:53:12;;;;;;;9.63;4.78;;;;;;;7.15;40.10;101252.72;4130072;28;20038;-69
2023/04/05 08:55:17;;;;;;;9.07;4.82;;;;;;;7.22;40.04;101248.69;4137396;28;20038;-69
2023/04/05 08:57:26;;;;;;;7.78;4.43;;;;;;;7.27;39.86;101249.72;4132967;28;20496;-69
2023/04/05 08:59:31;;;;;;;11.43;4.57;;;;;;;7.24;40.24;101252.19;4131849;28;20039;-69
2023/04/05 09:01:36;;;;;;;10.25;5.25;;;;;;;7.31;40.36;101249.91;4130497;28;20042;-69
2023/04/05 09:03:42;;;;;;;13.50;5.30;;;;;;;7.37;40.56;101248.41;4127584;28;20093;-69
2023/04/05 09:05:46;;;;;;;11.82;5.45;;;;;;;7.75;38.45;101251.63;4123697;28;20038;-69
2023/04/05 09:07:50;;;;;;;8.90;4.15;;;;;;;7.51;39.30;101245.53;4128724;28;20039;-69
2023/04/05 09:09:55;;;;;;;10.43;5.30;;;;;;;7.58;39.47;101249.25;4131468;28;20097;-69
2023/04/05 09:12:00;;;;;;;16.35;4.85;;;;;;;7.66;39.18;101247.84;4130988;28;20443;-69
2023/04/05 09:14:03;;;;;;;8.63;4.82;;;;;;;7.68;39.17;101241.03;4130886;28;20066;-69
2023/04/05 09:16:07;;;;;;;9.63;4.45;;;;;;;7.61;39.92;101243.34;4137847;28;20088;-68
2023/04/05 09:18:10;;;;;;;12.88;4.75;;;;;;;7.83;39.45;101243.31;4125597;28;20049;-69
2023/04/05 09:20:27;;;;;;;12.20;5.53;;;;;;;7.86;39.12;101237.38;4114902;28;20038;-69
2023/04/05 09:22:30;;;;;;;12.00;4.95;;;;;;;8.13;38.03;101236.63;4126043;28;20042;-69
2023/04/05 09:24:35;;;;;;;13.00;4.63;;;;;;;8.06;38.38;101238.13;4128063;28;20038;-69
2023/04/05 09:26:38;;;;;;;;;;;;;;;8.15;38.37;101233.28;4130659;28;20124;-70
2023/04/05 09:28:42;;;;;;;8.93;4.57;;;;;;;8.36;37.61;101237.47;4131474;28;20386;-69
2023/04/05 09:30:46;;;;;;;9.10;4.53;;;;;;;8.35;36.97;101236.59;4123106;28;20040;-69
2023/04/05 09:32:51;;;;;;;10.05;4.57;;;;;;;8.36;37.41;101230.56;4130069;28;20038;-69
2023/04/05 09:34:54;;;;;;;9.23;4.57;;;;;;;8.45;37.48;101236.94;4131200;28;20049;-69
2023/04/05 09:37:15;;;;;;;13.15;4.60;;;;;;;8.70;37.18;101231.81;4145874;28;20046;-69
2023/04/05 09:39:22;;;;;;;11.82;5.30;;;;;;;8.95;36.04;101221.34;4127390;28;20170;-70
2023/04/05 09:41:25;;;;;;;12.18;5.20;;;;;;;8.92;36.20;101229.91;4124481;28;20034;-69
2023/04/05 09:43:38;;;;;;;12.82;4.03;;;;;;;8.71;37.38;101220.59;4131383;28;20046;-70
2023/04/05 09:45:44;;;;;;;8.60;4.72;;;;;;;8.97;35.69;101223.19;4130217;28;20058;-69
2023/04/05 09:47:55;;;;;;;10.50;4.57;;;;;;;8.89;36.25;101214.25;4123484;28;20081;-69
2023/04/05 09:49:58;;;;;;;10.45;4.20;;;;;;;8.87;37.25;101211.59;4118028;28;20408;-71
2023/04/05 09:52:01;;;;;;;7.43;4.25;;;;;;;8.90;36.96;101216.91;4126535;28;20057;-69